createdAt,value
2018-09-05T00:01:27.481Z,36.2
2018-09-05T00:11:27.377Z,37.4
2018-09-05T00:21:26.538Z,37.6
2018-09-05T00:31:26.490Z,34.7
2018-09-05T00:41:25.676Z,35.1
2018-09-05T00:51:25.624Z,33.3
2018-09-05T01:01:28.043Z,32.6
2018-09-05T01:11:25.964Z,33.9
2018-09-05T01:21:26.502Z,33.8
2018-09-05T01:31:28.577Z,39.8
2018-09-05T01:41:26.594Z,38.1
2018-09-05T01:51:25.665Z,36.8
2018-09-05T02:01:26.909Z,42.7
2018-09-05T02:11:27.658Z,49.9
2018-09-05T02:21:27.180Z,48.9
2018-09-05T02:31:27.958Z,59.4
2018-09-05T02:41:27.431Z,45.5
2018-09-05T02:51:25.606Z,52.4
2018-09-05T03:01:26.553Z,49.0
2018-09-05T03:11:25.974Z,50.1
2018-09-05T03:21:26.203Z,49.8
2018-09-05T03:32:33.291Z,48.0
2018-09-05T03:41:26.921Z,50.6
2018-09-05T03:51:26.201Z,46.5
2018-09-05T04:01:26.301Z,42.5
2018-09-05T04:11:26.574Z,41.3
2018-09-05T04:21:25.817Z,45.2
2018-09-05T04:31:26.979Z,44.6
2018-09-05T04:41:26.275Z,40.9
2018-09-05T04:51:29.288Z,43.8
2018-09-05T05:01:27.615Z,46.2
2018-09-05T05:11:27.728Z,42.3
2018-09-05T05:21:26.985Z,40.8
2018-09-05T05:31:26.569Z,39.8
2018-09-05T05:41:26.878Z,47.1
2018-09-05T05:51:27.570Z,43.7
2018-09-05T06:01:26.637Z,47.7
2018-09-05T06:11:26.856Z,39.7
2018-09-05T06:21:26.113Z,30.3
2018-09-05T06:31:27.060Z,32.1
2018-09-05T06:41:26.940Z,28.8
2018-09-05T06:51:27.507Z,29.4
2018-09-05T07:01:26.243Z,32.4
2018-09-05T07:11:27.243Z,32.1
2018-09-05T07:21:28.006Z,32.7
2018-09-05T07:31:26.929Z,32.8
2018-09-05T07:41:25.897Z,29.3
2018-09-05T07:51:25.994Z,27.2
2018-09-05T08:01:26.531Z,37.1
2018-09-05T08:11:26.729Z,33.6
2018-09-05T08:21:26.582Z,35.3
2018-09-05T08:31:27.368Z,39.0
2018-09-05T08:41:27.665Z,34.8
2018-09-05T08:51:26.814Z,37.7
2018-09-05T09:01:26.155Z,45.0
2018-09-05T09:11:26.674Z,30.7
2018-09-05T09:21:25.898Z,33.7
2018-09-05T09:31:27.355Z,22.2
2018-09-05T09:41:26.600Z,23.6
2018-09-05T09:51:27.502Z,21.7
2018-09-05T10:01:26.558Z,19.2
2018-09-05T10:11:26.863Z,27.7
2018-09-05T10:21:26.365Z,18.5
2018-09-05T10:31:27.009Z,17.2
2018-09-05T10:41:26.536Z,16.4
2018-09-05T10:51:27.485Z,16.2
2018-09-05T11:01:27.682Z,17.2
2018-09-05T11:11:25.812Z,16.1
2018-09-05T11:21:26.312Z,16.7
2018-09-05T11:31:31.610Z,18.4
2018-09-05T11:41:27.046Z,19.3
2018-09-05T11:51:26.584Z,17.1
2018-09-05T12:01:26.806Z,17.6
2018-09-05T12:11:26.039Z,19.1
2018-09-05T12:21:26.956Z,19.1
2018-09-05T12:31:26.011Z,14.3
2018-09-05T12:41:26.600Z,10.9
2018-09-05T12:51:26.521Z,15.2
2018-09-05T13:01:28.865Z,13.5
2018-09-05T13:11:25.997Z,13.8
2018-09-05T13:21:32.461Z,14.5
2018-09-05T13:31:27.329Z,14.6
2018-09-05T13:41:26.626Z,12.3
2018-09-05T13:51:26.589Z,10.9
2018-09-05T14:01:26.632Z,13.9
2018-09-05T14:11:26.872Z,10.9
2018-09-05T14:21:26.313Z,10.1
2018-09-05T14:31:27.571Z,11.4
2018-09-05T14:41:28.588Z,10.8
2018-09-05T14:51:25.862Z,12.5
2018-09-05T15:01:25.994Z,15.4
2018-09-05T15:11:26.046Z,12.6
2018-09-05T15:21:26.727Z,11.3
2018-09-05T15:31:31.173Z,13.1
2018-09-05T15:41:26.794Z,16.7
2018-09-05T15:51:25.736Z,11.2
2018-09-05T16:01:25.787Z,13.8
2018-09-05T16:11:26.416Z,12.8
2018-09-05T16:21:27.073Z,11.8
2018-09-05T16:31:27.089Z,13.3
2018-09-05T16:41:26.138Z,11.5
2018-09-05T16:51:26.769Z,12.6
2018-09-05T17:01:27.534Z,13.7
2018-09-05T17:11:26.986Z,14.1
2018-09-05T17:21:26.249Z,13.9
2018-09-05T17:31:26.475Z,13.8
2018-09-05T17:41:26.488Z,16.2
2018-09-05T17:51:29.026Z,15.6
2018-09-05T18:01:26.211Z,17.6
2018-09-05T18:11:26.683Z,16.9
2018-09-05T18:21:27.444Z,18.9
2018-09-05T18:31:27.938Z,20.2
2018-09-05T18:41:28.919Z,17.9
2018-09-05T18:51:26.514Z,19.7
2018-09-05T19:01:26.594Z,21.0
2018-09-05T19:11:25.869Z,19.4
2018-09-05T19:21:26.080Z,19.6
2018-09-05T19:31:26.248Z,24.6
2018-09-05T19:41:26.658Z,20.8
2018-09-05T19:51:25.780Z,26.8
2018-09-05T20:01:25.914Z,23.8
2018-09-05T20:11:26.238Z,27.8
2018-09-05T20:21:27.162Z,25.1
2018-09-05T20:31:26.964Z,25.0
2018-09-05T20:41:26.682Z,24.2
2018-09-05T20:51:25.915Z,23.5
2018-09-05T21:01:26.720Z,23.7
2018-09-05T21:11:26.326Z,26.5
2018-09-05T21:21:27.588Z,27.0
2018-09-05T21:31:25.922Z,23.4
2018-09-05T21:41:26.219Z,28.4
2018-09-05T21:51:26.777Z,27.0
2018-09-05T22:01:25.906Z,25.8
2018-09-05T22:11:26.718Z,81.4
2018-09-05T22:21:27.212Z,30.0
2018-09-05T22:31:27.794Z,28.1
2018-09-05T22:41:25.871Z,29.4
2018-09-05T22:51:26.383Z,25.7
2018-09-05T23:01:26.435Z,34.2
2018-09-05T23:11:25.603Z,33.0
2018-09-05T23:21:26.126Z,29.2
2018-09-05T23:31:26.293Z,30.2
2018-09-05T23:41:26.343Z,25.7
2018-09-05T23:51:27.775Z,31.0
